Time;durP1;ratioP1;P1;durP2;ratioP2;P2;SDS_P1;SDS_P2;PMS_P1;PMS_P2;Temp;Humidity;BMP_temperature;BMP_pressure;BME280_temperature;BME280_humidity;BME280_pressure;Samples;Min_cycle;Max_cycle;Signal;HPM_P1;HPM_P2
2020/05/11 00:00:40;;;;;;;15.7;14.3;;;;;;;13.4;85.56055;93816.03;;;;
2020/05/11 00:01:40;;;;;;;15.7;14.3;;;;;;;13.4;85.56055;93816.03;;;;
2020/05/11 00:02:41;;;;;;;15.7;14.3;;;;;;;13.4;85.56055;93816.03;;;;
2020/05/11 00:03:41;;;;;;;15.7;14.3;;;;;;;13.4;85.56055;93816.03;;;;
2020/05/11 00:04:42;;;;;;;15.7;14.3;;;;;;;13.4;85.56055;93816.03;;;;
2020/05/11 00:05:43;;;;;;;15.7;14.3;;;;;;;13.4;85.56055;93816.03;;;;
2020/05/11 00:06:43;;;;;;;15.6;14.2;;;;;;;13.34;86.09668;93810.43;;;;
2020/05/11 00:07:44;;;;;;;15.6;14.2;;;;;;;13.34;86.09668;93810.43;;;;
2020/05/11 00:08:44;;;;;;;15.6;14.2;;;;;;;13.34;86.09668;93810.43;;;;
2020/05/11 00:09:44;;;;;;;15.6;14.2;;;;;;;13.34;86.09668;93810.43;;;;
2020/05/11 00:10:45;;;;;;;15.6;14.2;;;;;;;13.34;86.09668;93810.43;;;;
2020/05/11 00:11:45;;;;;;;15.6;14.2;;;;;;;13.34;86.09668;93810.43;;;;
2020/05/11 00:12:46;;;;;;;15.6;14.2;;;;;;;13.34;86.09668;93810.43;;;;
2020/05/11 00:13:46;;;;;;;15.6;14.2;;;;;;;13.34;86.09668;93810.43;;;;
2020/05/11 00:14:47;;;;;;;15.6;14.2;;;;;;;13.34;86.09668;93810.43;;;;
2020/05/11 00:15:47;;;;;;;15.6;14.2;;;;;;;13.34;86.09668;93810.43;;;;
2020/05/11 00:16:48;;;;;;;15.6;14.2;;;;;;;13.34;86.09668;93810.43;;;;
2020/05/11 00:17:48;;;;;;;15.5;14.1;;;;;;;13.23;86.53418;93786.42;;;;
2020/05/11 00:18:49;;;;;;;15.5;14.1;;;;;;;13.23;86.53418;93786.42;;;;
2020/05/11 00:19:49;;;;;;;15.5;14.1;;;;;;;13.23;86.53418;93786.42;;;;
2020/05/11 00:20:50;;;;;;;15.5;14.1;;;;;;;13.23;86.53418;93786.42;;;;
2020/05/11 00:21:50;;;;;;;15.5;14.1;;;;;;;13.23;86.53418;93786.42;;;;
2020/05/11 00:22:51;;;;;;;15.5;14.1;;;;;;;13.23;86.53418;93786.42;;;;
2020/05/11 00:23:51;;;;;;;15.5;14.1;;;;;;;13.23;86.53418;93786.42;;;;
2020/05/11 00:24:52;;;;;;;15.5;14.1;;;;;;;13.23;86.53418;93786.42;;;;
2020/05/11 00:25:52;;;;;;;15.5;14.1;;;;;;;13.23;86.53418;93786.42;;;;
2020/05/11 00:26:53;;;;;;;15.5;14.1;;;;;;;13.23;86.53418;93786.42;;;;
2020/05/11 00:27:53;;;;;;;15.75;14.35;;;;;;;13.17;86.96289;93772.69;;;;
2020/05/11 00:28:54;;;;;;;15.75;14.35;;;;;;;13.17;86.96289;93772.69;;;;
2020/05/11 00:29:54;;;;;;;15.75;14.35;;;;;;;13.17;86.96289;93772.69;;;;
2020/05/11 00:30:55;;;;;;;15.75;14.35;;;;;;;13.17;86.96289;93772.69;;;;
2020/05/11 00:31:55;;;;;;;15.75;14.35;;;;;;;13.17;86.96289;93772.69;;;;
2020/05/11 00:32:56;;;;;;;15.75;14.35;;;;;;;13.17;86.96289;93772.69;;;;
2020/05/11 00:33:56;;;;;;;15.75;14.35;;;;;;;13.17;86.96289;93772.69;;;;
2020/05/11 00:34:57;;;;;;;15.75;14.35;;;;;;;13.17;86.96289;93772.69;;;;
2020/05/11 00:35:57;;;;;;;15.75;14.35;;;;;;;13.17;86.96289;93772.69;;;;
2020/05/11 00:36:57;;;;;;;15.75;14.35;;;;;;;13.17;86.96289;93772.69;;;;
2020/05/11 00:37:58;;;;;;;15.75;14.35;;;;;;;13.17;86.96289;93772.69;;;;
2020/05/11 00:38:58;;;;;;;15.05;13.65;;;;;;;12.98;87.32227;93751.86;;;;
2020/05/11 00:39:59;;;;;;;15.05;13.65;;;;;;;12.98;87.32227;93751.86;;;;
2020/05/11 00:40:59;;;;;;;15.05;13.65;;;;;;;12.98;87.32227;93751.86;;;;
2020/05/11 00:42:00;;;;;;;15.05;13.65;;;;;;;12.98;87.32227;93751.86;;;;
2020/05/11 00:43:02;;;;;;;15.05;13.65;;;;;;;12.98;87.32227;93751.86;;;;
2020/05/11 00:44:02;;;;;;;15.05;13.65;;;;;;;12.98;87.32227;93751.86;;;;
2020/05/11 00:45:03;;;;;;;15.05;13.65;;;;;;;12.98;87.32227;93751.86;;;;
2020/05/11 00:46:09;;;;;;;15.05;13.65;;;;;;;12.98;87.32227;93751.86;;;;
2020/05/11 00:47:20;;;;;;;15.05;13.65;;;;;;;12.98;87.32227;93751.86;;;;
2020/05/11 00:48:25;;;;;;;15.05;13.65;;;;;;;12.98;87.32227;93751.86;;;;
2020/05/11 00:49:30;;;;;;;17.45;15.85;;;;;;;12.82;87.8584;93735.52;;;;
2020/05/11 00:50:37;;;;;;;17.45;15.85;;;;;;;12.82;87.8584;93735.52;;;;
2020/05/11 00:51:39;;;;;;;17.45;15.85;;;;;;;12.82;87.8584;93735.52;;;;
2020/05/11 00:52:40;;;;;;;17.45;15.85;;;;;;;12.82;87.8584;93735.52;;;;
2020/05/11 00:53:40;;;;;;;17.45;15.85;;;;;;;12.82;87.8584;93735.52;;;;
2020/05/11 00:54:41;;;;;;;17.45;15.85;;;;;;;12.82;87.8584;93735.52;;;;
2020/05/11 00:55:41;;;;;;;17.45;15.85;;;;;;;12.82;87.8584;93735.52;;;;
2020/05/11 00:56:42;;;;;;;17.45;15.85;;;;;;;12.82;87.8584;93735.52;;;;
2020/05/11 00:57:42;;;;;;;17.45;15.85;;;;;;;12.82;87.8584;93735.52;;;;
2020/05/11 00:58:42;;;;;;;17.45;15.85;;;;;;;12.82;87.8584;93735.52;;;;
2020/05/11 00:59:43;;;;;;;21.25;19.15;;;;;;;12.62;88.24902;93712.57;;;;
2020/05/11 01:05:29;;;;;;;21.25;19.15;;;;;;;12.62;88.24902;93712.57;;;;
2020/05/11 01:06:32;;;;;;;21.25;19.15;;;;;;;12.62;88.24902;93712.57;;;;
2020/05/11 01:07:32;;;;;;;21.25;19.15;;;;;;;12.62;88.24902;93712.57;;;;
2020/05/11 01:08:33;;;;;;;21.25;19.15;;;;;;;12.62;88.24902;93712.57;;;;
2020/05/11 01:09:33;;;;;;;21.25;19.15;;;;;;;12.62;88.24902;93712.57;;;;
2020/05/11 01:10:34;;;;;;;21.3;19.25;;;;;;;12.58;88.71094;93705.29;;;;
2020/05/11 01:11:34;;;;;;;21.3;19.25;;;;;;;12.58;88.71094;93705.29;;;;
2020/05/11 01:12:34;;;;;;;21.3;19.25;;;;;;;12.58;88.71094;93705.29;;;;
2020/05/11 01:13:35;;;;;;;21.3;19.25;;;;;;;12.58;88.71094;93705.29;;;;
2020/05/11 01:14:35;;;;;;;21.3;19.25;;;;;;;12.58;88.71094;93705.29;;;;
2020/05/11 01:15:36;;;;;;;21.3;19.25;;;;;;;12.58;88.71094;93705.29;;;;
2020/05/11 01:16:36;;;;;;;21.3;19.25;;;;;;;12.58;88.71094;93705.29;;;;
2020/05/11 01:17:37;;;;;;;21.3;19.25;;;;;;;12.58;88.71094;93705.29;;;;
2020/05/11 01:18:37;;;;;;;21.3;19.25;;;;;;;12.58;88.71094;93705.29;;;;
2020/05/11 01:19:38;;;;;;;21.3;19.25;;;;;;;12.58;88.71094;93705.29;;;;
2020/05/11 01:20:38;;;;;;;21.3;19.25;;;;;;;12.58;88.71094;93705.29;;;;
2020/05/11 01:21:39;;;;;;;20.95;18.95;;;;;;;12.51;89.17871;93684.92;;;;
2020/05/11 01:22:39;;;;;;;20.95;18.95;;;;;;;12.51;89.17871;93684.92;;;;
2020/05/11 01:23:40;;;;;;;20.95;18.95;;;;;;;12.51;89.17871;93684.92;;;;
2020/05/11 01:24:40;;;;;;;20.95;18.95;;;;;;;12.51;89.17871;93684.92;;;;
2020/05/11 01:25:41;;;;;;;20.95;18.95;;;;;;;12.51;89.17871;93684.92;;;;
2020/05/11 01:26:41;;;;;;;20.95;18.95;;;;;;;12.51;89.17871;93684.92;;;;
2020/05/11 01:27:42;;;;;;;20.95;18.95;;;;;;;12.51;89.17871;93684.92;;;;
2020/05/11 01:28:42;;;;;;;20.95;18.95;;;;;;;12.51;89.17871;93684.92;;;;
2020/05/11 01:29:43;;;;;;;20.95;18.95;;;;;;;12.51;89.17871;93684.92;;;;
2020/05/11 01:30:43;;;;;;;20.95;18.95;;;;;;;12.51;89.17871;93684.92;;;;
2020/05/11 01:31:44;;;;;;;18.2;16.5;;;;;;;12.54;89.49316;93689.76;;;;
2020/05/11 01:32:44;;;;;;;18.2;16.5;;;;;;;12.54;89.49316;93689.76;;;;
2020/05/11 01:33:45;;;;;;;18.2;16.5;;;;;;;12.54;89.49316;93689.76;;;;
2020/05/11 01:34:45;;;;;;;18.2;16.5;;;;;;;12.54;89.49316;93689.76;;;;
2020/05/11 01:35:46;;;;;;;18.2;16.5;;;;;;;12.54;89.49316;93689.76;;;;
2020/05/11 01:36:46;;;;;;;18.2;16.5;;;;;;;12.54;89.49316;93689.76;;;;
2020/05/11 01:37:47;;;;;;;18.2;16.5;;;;;;;12.54;89.49316;93689.76;;;;
2020/05/11 01:38:47;;;;;;;18.2;16.5;;;;;;;12.54;89.49316;93689.76;;;;
2020/05/11 01:39:48;;;;;;;18.2;16.5;;;;;;;12.54;89.49316;93689.76;;;;
2020/05/11 01:40:48;;;;;;;18.2;16.5;;;;;;;12.54;89.49316;93689.76;;;;
2020/05/11 01:41:49;;;;;;;18.2;16.5;;;;;;;12.54;89.49316;93689.76;;;;
2020/05/11 01:42:50;;;;;;;21.05;19.05;;;;;;;12.5;90.0752;93682.76;;;;
2020/05/11 01:43:50;;;;;;;21.05;19.05;;;;;;;12.5;90.0752;93682.76;;;;
2020/05/11 01:44:51;;;;;;;21.05;19.05;;;;;;;12.5;90.0752;93682.76;;;;
2020/05/11 01:45:52;;;;;;;21.05;19.05;;;;;;;12.5;90.0752;93682.76;;;;
2020/05/11 01:46:53;;;;;;;21.05;19.05;;;;;;;12.5;90.0752;93682.76;;;;
2020/05/11 01:47:53;;;;;;;21.05;19.05;;;;;;;12.5;90.0752;93682.76;;;;
2020/05/11 01:48:54;;;;;;;21.05;19.05;;;;;;;12.5;90.0752;93682.76;;;;
2020/05/11 01:49:54;;;;;;;21.05;19.05;;;;;;;12.5;90.0752;93682.76;;;;
2020/05/11 01:50:54;;;;;;;21.05;19.05;;;;;;;12.5;90.0752;93682.76;;;;
2020/05/11 01:51:55;;;;;;;21.05;19.05;;;;;;;12.5;90.0752;93682.76;;;;
2020/05/11 01:52:55;;;;;;;22.15;19.95;;;;;;;12.56;90.52539;93667.27;;;;
2020/05/11 01:53:56;;;;;;;22.15;19.95;;;;;;;12.56;90.52539;93667.27;;;;
2020/05/11 01:54:56;;;;;;;22.15;19.95;;;;;;;12.56;90.52539;93667.27;;;;
2020/05/11 01:55:57;;;;;;;22.15;19.95;;;;;;;12.56;90.52539;93667.27;;;;
2020/05/11 01:56:57;;;;;;;22.15;19.95;;;;;;;12.56;90.52539;93667.27;;;;
2020/05/11 01:57:58;;;;;;;22.15;19.95;;;;;;;12.56;90.52539;93667.27;;;;
2020/05/11 01:58:58;;;;;;;22.15;19.95;;;;;;;12.56;90.52539;93667.27;;;;
2020/05/11 01:59:59;;;;;;;22.15;19.95;;;;;;;12.56;90.52539;93667.27;;;;
2020/05/11 02:00:59;;;;;;;22.15;19.95;;;;;;;12.56;90.52539;93667.27;;;;
2020/05/11 02:02:00;;;;;;;22.15;19.95;;;;;;;12.56;90.52539;93667.27;;;;
2020/05/11 02:03:00;;;;;;;22.15;19.95;;;;;;;12.56;90.52539;93667.27;;;;
2020/05/11 02:04:00;;;;;;;20.65;18.75;;;;;;;12.45;90.78223;93623.27;;;;
2020/05/11 02:05:01;;;;;;;20.65;18.75;;;;;;;12.45;90.78223;93623.27;;;;
2020/05/11 02:06:02;;;;;;;20.65;18.75;;;;;;;12.45;90.78223;93623.27;;;;
2020/05/11 02:07:02;;;;;;;20.65;18.75;;;;;;;12.45;90.78223;93623.27;;;;
2020/05/11 02:08:03;;;;;;;20.65;18.75;;;;;;;12.45;90.78223;93623.27;;;;
2020/05/11 02:09:03;;;;;;;20.65;18.75;;;;;;;12.45;90.78223;93623.27;;;;
2020/05/11 02:10:04;;;;;;;20.65;18.75;;;;;;;12.45;90.78223;93623.27;;;;
2020/05/11 02:11:05;;;;;;;20.65;18.75;;;;;;;12.45;90.78223;93623.27;;;;
2020/05/11 02:12:05;;;;;;;20.65;18.75;;;;;;;12.45;90.78223;93623.27;;;;
2020/05/11 02:13:08;;;;;;;20.65;18.75;;;;;;;12.45;90.78223;93623.27;;;;
2020/05/11 02:14:08;;;;;;;20.35;18.45;;;;;;;12.38;91.51367;93630.11;;;;
2020/05/11 02:15:09;;;;;;;20.35;18.45;;;;;;;12.38;91.51367;93630.11;;;;
2020/05/11 02:16:11;;;;;;;20.35;18.45;;;;;;;12.38;91.51367;93630.11;;;;
2020/05/11 02:17:11;;;;;;;20.35;18.45;;;;;;;12.38;91.51367;93630.11;;;;
2020/05/11 02:18:12;;;;;;;20.35;18.45;;;;;;;12.38;91.51367;93630.11;;;;
2020/05/11 02:19:14;;;;;;;20.35;18.45;;;;;;;12.38;91.51367;93630.11;;;;
2020/05/11 02:20:16;;;;;;;20.35;18.45;;;;;;;12.38;91.51367;93630.11;;;;
2020/05/11 02:21:24;;;;;;;20.35;18.45;;;;;;;12.38;91.51367;93630.11;;;;
2020/05/11 02:22:31;;;;;;;20.35;18.45;;;;;;;12.38;91.51367;93630.11;;;;
2020/05/11 02:23:35;;;;;;;20.35;18.45;;;;;;;12.38;91.51367;93630.11;;;;
2020/05/11 02:24:44;;;;;;;20.95;18.95;;;;;;;12.31;91.81152;93619.64;;;;
2020/05/11 02:25:51;;;;;;;20.95;18.95;;;;;;;12.31;91.81152;93619.64;;;;
2020/05/11 02:32:05;;;;;;;20.95;18.95;;;;;;;12.31;91.81152;93619.64;;;;
2020/05/11 02:33:06;;;;;;;20.95;18.95;;;;;;;12.31;91.81152;93619.64;;;;
2020/05/11 02:34:06;;;;;;;20.95;18.95;;;;;;;12.31;91.81152;93619.64;;;;
2020/05/11 02:35:07;;;;;;;20;18.1;;;;;;;12.26;92.15234;93574.64;;;;
2020/05/11 02:36:07;;;;;;;20;18.1;;;;;;;12.26;92.15234;93574.64;;;;
2020/05/11 02:37:08;;;;;;;20;18.1;;;;;;;12.26;92.15234;93574.64;;;;
2020/05/11 02:38:08;;;;;;;20;18.1;;;;;;;12.26;92.15234;93574.64;;;;
2020/05/11 02:39:09;;;;;;;20;18.1;;;;;;;12.26;92.15234;93574.64;;;;
2020/05/11 02:40:09;;;;;;;20;18.1;;;;;;;12.26;92.15234;93574.64;;;;
2020/05/11 02:41:10;;;;;;;20;18.1;;;;;;;12.26;92.15234;93574.64;;;;
2020/05/11 02:42:11;;;;;;;20;18.1;;;;;;;12.26;92.15234;93574.64;;;;
2020/05/11 02:43:11;;;;;;;20;18.1;;;;;;;12.26;92.15234;93574.64;;;;
2020/05/11 02:44:11;;;;;;;20;18.1;;;;;;;12.26;92.15234;93574.64;;;;
2020/05/11 02:45:12;;;;;;;20;18.1;;;;;;;12.26;92.15234;93574.64;;;;
2020/05/11 02:46:12;;;;;;;18.75;17;;;;;;;12.09;92.41797;93572.38;;;;
2020/05/11 02:47:13;;;;;;;18.75;17;;;;;;;12.09;92.41797;93572.38;;;;
2020/05/11 02:48:14;;;;;;;18.75;17;;;;;;;12.09;92.41797;93572.38;;;;
2020/05/11 02:49:14;;;;;;;18.75;17;;;;;;;12.09;92.41797;93572.38;;;;
2020/05/11 02:50:15;;;;;;;18.75;17;;;;;;;12.09;92.41797;93572.38;;;;
2020/05/11 02:51:15;;;;;;;18.75;17;;;;;;;12.09;92.41797;93572.38;;;;
2020/05/11 02:52:15;;;;;;;18.75;17;;;;;;;12.09;92.41797;93572.38;;;;
2020/05/11 02:53:16;;;;;;;18.75;17;;;;;;;12.09;92.41797;93572.38;;;;
2020/05/11 02:54:16;;;;;;;18.75;17;;;;;;;12.09;92.41797;93572.38;;;;
2020/05/11 02:55:17;;;;;;;18.75;17;;;;;;;12.09;92.41797;93572.38;;;;
2020/05/11 02:56:17;;;;;;;19.5;17.7;;;;;;;12.03;92.82031;93562.31;;;;
2020/05/11 02:57:18;;;;;;;19.5;17.7;;;;;;;12.03;92.82031;93562.31;;;;
2020/05/11 02:58:18;;;;;;;19.5;17.7;;;;;;;12.03;92.82031;93562.31;;;;
2020/05/11 02:59:18;;;;;;;19.5;17.7;;;;;;;12.03;92.82031;93562.31;;;;
2020/05/11 03:00:19;;;;;;;19.5;17.7;;;;;;;12.03;92.82031;93562.31;;;;
2020/05/11 03:01:20;;;;;;;19.5;17.7;;;;;;;12.03;92.82031;93562.31;;;;
2020/05/11 03:02:20;;;;;;;19.5;17.7;;;;;;;12.03;92.82031;93562.31;;;;
2020/05/11 03:03:21;;;;;;;19.5;17.7;;;;;;;12.03;92.82031;93562.31;;;;
2020/05/11 03:04:22;;;;;;;19.5;17.7;;;;;;;12.03;92.82031;93562.31;;;;
2020/05/11 03:05:22;;;;;;;19.5;17.7;;;;;;;12.03;92.82031;93562.31;;;;
2020/05/11 03:06:23;;;;;;;19.5;17.7;;;;;;;12.03;92.82031;93562.31;;;;
2020/05/11 03:07:23;;;;;;;18.85;17.05;;;;;;;11.93;93.18262;93574.16;;;;
2020/05/11 03:08:24;;;;;;;18.85;17.05;;;;;;;11.93;93.18262;93574.16;;;;
2020/05/11 03:09:24;;;;;;;18.85;17.05;;;;;;;11.93;93.18262;93574.16;;;;
2020/05/11 03:10:25;;;;;;;18.85;17.05;;;;;;;11.93;93.18262;93574.16;;;;
2020/05/11 03:11:25;;;;;;;18.85;17.05;;;;;;;11.93;93.18262;93574.16;;;;
2020/05/11 03:12:27;;;;;;;18.85;17.05;;;;;;;11.93;93.18262;93574.16;;;;
2020/05/11 03:13:29;;;;;;;18.85;17.05;;;;;;;11.93;93.18262;93574.16;;;;
2020/05/11 03:14:31;;;;;;;18.85;17.05;;;;;;;11.93;93.18262;93574.16;;;;
2020/05/11 03:16:43;;;;;;;18.85;17.05;;;;;;;11.93;93.18262;93574.16;;;;
2020/05/11 03:17:50;;;;;;;21.2;19.15;;;;;;;11.91;93.45801;93552.81;;;;
2020/05/11 03:18:57;;;;;;;21.2;19.15;;;;;;;11.91;93.45801;93552.81;;;;
2020/05/11 03:19:58;;;;;;;21.2;19.15;;;;;;;11.91;93.45801;93552.81;;;;
2020/05/11 03:21:01;;;;;;;21.2;19.15;;;;;;;11.91;93.45801;93552.81;;;;
2020/05/11 03:22:02;;;;;;;21.2;19.15;;;;;;;11.91;93.45801;93552.81;;;;
2020/05/11 03:23:05;;;;;;;21.2;19.15;;;;;;;11.91;93.45801;93552.81;;;;
2020/05/11 03:24:07;;;;;;;21.2;19.15;;;;;;;11.91;93.45801;93552.81;;;;
2020/05/11 03:25:08;;;;;;;21.2;19.15;;;;;;;11.91;93.45801;93552.81;;;;
2020/05/11 03:26:50;;;;;;;21.2;19.15;;;;;;;11.91;93.45801;93552.81;;;;
2020/05/11 03:27:51;;;;;;;21.2;19.15;;;;;;;11.91;93.45801;93552.81;;;;
2020/05/11 03:28:55;;;;;;;18.95;17.1;;;;;;;11.85;93.78418;93540.59;;;;
2020/05/11 03:29:56;;;;;;;18.95;17.1;;;;;;;11.85;93.78418;93540.59;;;;
2020/05/11 03:30:58;;;;;;;18.95;17.1;;;;;;;11.85;93.78418;93540.59;;;;
2020/05/11 03:32:07;;;;;;;18.95;17.1;;;;;;;11.85;93.78418;93540.59;;;;
2020/05/11 03:33:07;;;;;;;18.95;17.1;;;;;;;11.85;93.78418;93540.59;;;;
2020/05/11 03:34:08;;;;;;;18.95;17.1;;;;;;;11.85;93.78418;93540.59;;;;
2020/05/11 03:35:08;;;;;;;18.95;17.1;;;;;;;11.85;93.78418;93540.59;;;;
2020/05/11 03:36:09;;;;;;;18.95;17.1;;;;;;;11.85;93.78418;93540.59;;;;
2020/05/11 03:37:09;;;;;;;18.95;17.1;;;;;;;11.85;93.78418;93540.59;;;;
2020/05/11 03:38:10;;;;;;;18.95;17.1;;;;;;;11.85;93.78418;93540.59;;;;
2020/05/11 03:39:11;;;;;;;20.35;18.4;;;;;;;11.85;94.15918;93515.31;;;;
2020/05/11 03:40:17;;;;;;;20.35;18.4;;;;;;;11.85;94.15918;93515.31;;;;
2020/05/11 03:41:18;;;;;;;20.35;18.4;;;;;;;11.85;94.15918;93515.31;;;;
2020/05/11 03:42:18;;;;;;;20.35;18.4;;;;;;;11.85;94.15918;93515.31;;;;
2020/05/11 03:43:19;;;;;;;20.35;18.4;;;;;;;11.85;94.15918;93515.31;;;;
2020/05/11 03:44:19;;;;;;;20.35;18.4;;;;;;;11.85;94.15918;93515.31;;;;
2020/05/11 03:45:20;;;;;;;20.35;18.4;;;;;;;11.85;94.15918;93515.31;;;;
2020/05/11 03:46:22;;;;;;;20.35;18.4;;;;;;;11.85;94.15918;93515.31;;;;
2020/05/11 03:47:23;;;;;;;20.35;18.4;;;;;;;11.85;94.15918;93515.31;;;;
2020/05/11 03:48:25;;;;;;;20.35;18.4;;;;;;;11.85;94.15918;93515.31;;;;
2020/05/11 03:49:26;;;;;;;20.95;18.9;;;;;;;11.85;94.3623;93494.08;;;;
2020/05/11 03:50:26;;;;;;;20.95;18.9;;;;;;;11.85;94.3623;93494.08;;;;
2020/05/11 03:51:27;;;;;;;20.95;18.9;;;;;;;11.85;94.3623;93494.08;;;;
2020/05/11 03:52:27;;;;;;;20.95;18.9;;;;;;;11.85;94.3623;93494.08;;;;
2020/05/11 03:53:28;;;;;;;20.95;18.9;;;;;;;11.85;94.3623;93494.08;;;;
2020/05/11 03:54:28;;;;;;;20.95;18.9;;;;;;;11.85;94.3623;93494.08;;;;
2020/05/11 03:55:29;;;;;;;20.95;18.9;;;;;;;11.85;94.3623;93494.08;;;;
2020/05/11 03:56:29;;;;;;;20.95;18.9;;;;;;;11.85;94.3623;93494.08;;;;
2020/05/11 03:57:30;;;;;;;20.95;18.9;;;;;;;11.85;94.3623;93494.08;;;;
2020/05/11 03:58:30;;;;;;;20.95;18.9;;;;;;;11.85;94.3623;93494.08;;;;
2020/05/11 03:59:31;;;;;;;20.95;18.9;;;;;;;11.85;94.3623;93494.08;;;;
2020/05/11 04:01:36;;;;;;;20.5;18.65;;;;;;;11.92;94.56836;93489.67;;;;
2020/05/11 04:02:37;;;;;;;20.5;18.65;;;;;;;11.92;94.56836;93489.67;;;;
2020/05/11 04:03:38;;;;;;;20.5;18.65;;;;;;;11.92;94.56836;93489.67;;;;
2020/05/11 04:04:41;;;;;;;20.5;18.65;;;;;;;11.92;94.56836;93489.67;;;;
2020/05/11 04:05:41;;;;;;;20.5;18.65;;;;;;;11.92;94.56836;93489.67;;;;
2020/05/11 04:06:42;;;;;;;20.5;18.65;;;;;;;11.92;94.56836;93489.67;;;;
2020/05/11 04:07:43;;;;;;;20.5;18.65;;;;;;;11.92;94.56836;93489.67;;;;
2020/05/11 04:08:43;;;;;;;20.5;18.65;;;;;;;11.92;94.56836;93489.67;;;;
2020/05/11 04:09:43;;;;;;;20.5;18.65;;;;;;;11.92;94.56836;93489.67;;;;
2020/05/11 04:10:44;;;;;;;20.15;18.2;;;;;;;11.99;95.00879;93508.52;;;;
2020/05/11 04:11:44;;;;;;;20.15;18.2;;;;;;;11.99;95.00879;93508.52;;;;
2020/05/11 04:12:45;;;;;;;20.15;18.2;;;;;;;11.99;95.00879;93508.52;;;;
2020/05/11 04:13:46;;;;;;;20.15;18.2;;;;;;;11.99;95.00879;93508.52;;;;
2020/05/11 04:14:46;;;;;;;20.15;18.2;;;;;;;11.99;95.00879;93508.52;;;;
2020/05/11 04:15:47;;;;;;;20.15;18.2;;;;;;;11.99;95.00879;93508.52;;;;
2020/05/11 04:16:47;;;;;;;20.15;18.2;;;;;;;11.99;95.00879;93508.52;;;;
2020/05/11 04:17:49;;;;;;;20.15;18.2;;;;;;;11.99;95.00879;93508.52;;;;
2020/05/11 04:18:49;;;;;;;20.15;18.2;;;;;;;11.99;95.00879;93508.52;;;;
2020/05/11 04:19:50;;;;;;;20.15;18.2;;;;;;;11.99;95.00879;93508.52;;;;
2020/05/11 04:20:50;;;;;;;20.15;18.2;;;;;;;11.99;95.00879;93508.52;;;;
2020/05/11 04:21:51;;;;;;;21;18.9;;;;;;;12.23;94.9873;93502.53;;;;
2020/05/11 04:22:51;;;;;;;21;18.9;;;;;;;12.23;94.9873;93502.53;;;;
2020/05/11 04:23:52;;;;;;;21;18.9;;;;;;;12.23;94.9873;93502.53;;;;
2020/05/11 04:24:52;;;;;;;21;18.9;;;;;;;12.23;94.9873;93502.53;;;;
2020/05/11 04:25:53;;;;;;;21;18.9;;;;;;;12.23;94.9873;93502.53;;;;
2020/05/11 04:26:53;;;;;;;21;18.9;;;;;;;12.23;94.9873;93502.53;;;;
2020/05/11 04:27:53;;;;;;;21;18.9;;;;;;;12.23;94.9873;93502.53;;;;
2020/05/11 04:28:54;;;;;;;21;18.9;;;;;;;12.23;94.9873;93502.53;;;;
2020/05/11 04:29:55;;;;;;;21;18.9;;;;;;;12.23;94.9873;93502.53;;;;
2020/05/11 04:30:55;;;;;;;21;18.9;;;;;;;12.23;94.9873;93502.53;;;;
2020/05/11 04:31:56;;;;;;;19.35;17.6;;;;;;;12.44;95.00195;93489.03;;;;
2020/05/11 04:32:56;;;;;;;19.35;17.6;;;;;;;12.44;95.00195;93489.03;;;;
2020/05/11 04:33:57;;;;;;;19.35;17.6;;;;;;;12.44;95.00195;93489.03;;;;
2020/05/11 04:34:58;;;;;;;19.35;17.6;;;;;;;12.44;95.00195;93489.03;;;;
2020/05/11 04:35:58;;;;;;;19.35;17.6;;;;;;;12.44;95.00195;93489.03;;;;
2020/05/11 04:36:59;;;;;;;19.35;17.6;;;;;;;12.44;95.00195;93489.03;;;;
2020/05/11 04:37:59;;;;;;;19.35;17.6;;;;;;;12.44;95.00195;93489.03;;;;
2020/05/11 04:39:00;;;;;;;19.35;17.6;;;;;;;12.44;95.00195;93489.03;;;;
2020/05/11 04:40:00;;;;;;;19.35;17.6;;;;;;;12.44;95.00195;93489.03;;;;
2020/05/11 04:41:01;;;;;;;19.35;17.6;;;;;;;12.44;95.00195;93489.03;;;;
2020/05/11 04:42:01;;;;;;;19.35;17.6;;;;;;;12.44;95.00195;93489.03;;;;
2020/05/11 04:43:02;;;;;;;18.65;16.95;;;;;;;12.69;95.01172;93477.03;;;;
2020/05/11 04:44:03;;;;;;;18.65;16.95;;;;;;;12.69;95.01172;93477.03;;;;
2020/05/11 04:45:03;;;;;;;18.65;16.95;;;;;;;12.69;95.01172;93477.03;;;;
2020/05/11 04:46:09;;;;;;;18.65;16.95;;;;;;;12.69;95.01172;93477.03;;;;
2020/05/11 04:47:14;;;;;;;18.65;16.95;;;;;;;12.69;95.01172;93477.03;;;;
2020/05/11 04:48:22;;;;;;;18.65;16.95;;;;;;;12.69;95.01172;93477.03;;;;
2020/05/11 04:54:35;;;;;;;16.85;15.35;;;;;;;12.92;95.06055;93483.33;;;;
2020/05/11 04:55:38;;;;;;;16.85;15.35;;;;;;;12.92;95.06055;93483.33;;;;
2020/05/11 04:56:39;;;;;;;16.85;15.35;;;;;;;12.92;95.06055;93483.33;;;;
2020/05/11 04:57:39;;;;;;;16.85;15.35;;;;;;;12.92;95.06055;93483.33;;;;
2020/05/11 04:58:40;;;;;;;16.85;15.35;;;;;;;12.92;95.06055;93483.33;;;;
2020/05/11 04:59:40;;;;;;;16.85;15.35;;;;;;;12.92;95.06055;93483.33;;;;
2020/05/11 05:00:41;;;;;;;16.85;15.35;;;;;;;12.92;95.06055;93483.33;;;;
2020/05/11 05:01:42;;;;;;;16.85;15.35;;;;;;;12.92;95.06055;93483.33;;;;
2020/05/11 05:02:42;;;;;;;16.85;15.35;;;;;;;12.92;95.06055;93483.33;;;;
2020/05/11 05:03:43;;;;;;;16.05;14.55;;;;;;;13.29;94.84082;93467.99;;;;
2020/05/11 05:04:43;;;;;;;16.05;14.55;;;;;;;13.29;94.84082;93467.99;;;;
2020/05/11 05:05:44;;;;;;;16.05;14.55;;;;;;;13.29;94.84082;93467.99;;;;
2020/05/11 05:06:44;;;;;;;16.05;14.55;;;;;;;13.29;94.84082;93467.99;;;;
2020/05/11 05:07:45;;;;;;;16.05;14.55;;;;;;;13.29;94.84082;93467.99;;;;
2020/05/11 05:08:45;;;;;;;16.05;14.55;;;;;;;13.29;94.84082;93467.99;;;;
2020/05/11 05:09:46;;;;;;;16.05;14.55;;;;;;;13.29;94.84082;93467.99;;;;
2020/05/11 05:10:46;;;;;;;16.05;14.55;;;;;;;13.29;94.84082;93467.99;;;;
2020/05/11 05:11:47;;;;;;;16.05;14.55;;;;;;;13.29;94.84082;93467.99;;;;
2020/05/11 05:12:48;;;;;;;16.05;14.55;;;;;;;13.29;94.84082;93467.99;;;;
2020/05/11 05:13:48;;;;;;;16.05;14.55;;;;;;;13.29;94.84082;93467.99;;;;
2020/05/11 05:14:49;;;;;;;16.4;14.7;;;;;;;13.54;94.29395;93424.73;;;;
2020/05/11 05:15:49;;;;;;;16.4;14.7;;;;;;;13.54;94.29395;93424.73;;;;
2020/05/11 05:16:51;;;;;;;16.4;14.7;;;;;;;13.54;94.29395;93424.73;;;;
2020/05/11 05:17:51;;;;;;;16.4;14.7;;;;;;;13.54;94.29395;93424.73;;;;
2020/05/11 05:18:52;;;;;;;16.4;14.7;;;;;;;13.54;94.29395;93424.73;;;;
2020/05/11 05:19:52;;;;;;;16.4;14.7;;;;;;;13.54;94.29395;93424.73;;;;
2020/05/11 05:20:52;;;;;;;16.4;14.7;;;;;;;13.54;94.29395;93424.73;;;;
2020/05/11 05:21:53;;;;;;;16.4;14.7;;;;;;;13.54;94.29395;93424.73;;;;
2020/05/11 05:22:54;;;;;;;16.4;14.7;;;;;;;13.54;94.29395;93424.73;;;;
2020/05/11 05:23:54;;;;;;;16.4;14.7;;;;;;;13.54;94.29395;93424.73;;;;
2020/05/11 05:24:55;;;;;;;15.15;13.6;;;;;;;13.84;94.14355;93396.21;;;;
2020/05/11 05:25:55;;;;;;;15.15;13.6;;;;;;;13.84;94.14355;93396.21;;;;
2020/05/11 05:26:56;;;;;;;15.15;13.6;;;;;;;13.84;94.14355;93396.21;;;;
2020/05/11 05:27:56;;;;;;;15.15;13.6;;;;;;;13.84;94.14355;93396.21;;;;
2020/05/11 05:28:57;;;;;;;15.15;13.6;;;;;;;13.84;94.14355;93396.21;;;;
2020/05/11 05:29:57;;;;;;;15.15;13.6;;;;;;;13.84;94.14355;93396.21;;;;
2020/05/11 05:30:58;;;;;;;15.15;13.6;;;;;;;13.84;94.14355;93396.21;;;;
2020/05/11 05:31:58;;;;;;;15.15;13.6;;;;;;;13.84;94.14355;93396.21;;;;
2020/05/11 05:32:59;;;;;;;15.15;13.6;;;;;;;13.84;94.14355;93396.21;;;;
2020/05/11 05:33:59;;;;;;;15.15;13.6;;;;;;;13.84;94.14355;93396.21;;;;
2020/05/11 05:35:00;;;;;;;15.15;13.6;;;;;;;13.84;94.14355;93396.21;;;;
2020/05/11 05:36:00;;;;;;;13.5;12.2;;;;;;;14.01;94.10449;93409.99;;;;
2020/05/11 05:37:01;;;;;;;13.5;12.2;;;;;;;14.01;94.10449;93409.99;;;;
2020/05/11 05:38:01;;;;;;;13.5;12.2;;;;;;;14.01;94.10449;93409.99;;;;
2020/05/11 05:39:02;;;;;;;13.5;12.2;;;;;;;14.01;94.10449;93409.99;;;;
2020/05/11 05:40:03;;;;;;;13.5;12.2;;;;;;;14.01;94.10449;93409.99;;;;
2020/05/11 05:41:05;;;;;;;13.5;12.2;;;;;;;14.01;94.10449;93409.99;;;;
2020/05/11 05:42:05;;;;;;;13.5;12.2;;;;;;;14.01;94.10449;93409.99;;;;
2020/05/11 05:43:06;;;;;;;13.5;12.2;;;;;;;14.01;94.10449;93409.99;;;;
2020/05/11 05:44:06;;;;;;;13.5;12.2;;;;;;;14.01;94.10449;93409.99;;;;
2020/05/11 05:45:07;;;;;;;13.5;12.2;;;;;;;14.01;94.10449;93409.99;;;;
2020/05/11 05:46:07;;;;;;;14.1;12.7;;;;;;;14.19;93.85547;93380.4;;;;
2020/05/11 05:47:08;;;;;;;14.1;12.7;;;;;;;14.19;93.85547;93380.4;;;;
2020/05/11 05:48:08;;;;;;;14.1;12.7;;;;;;;14.19;93.85547;93380.4;;;;
2020/05/11 05:49:09;;;;;;;14.1;12.7;;;;;;;14.19;93.85547;93380.4;;;;
2020/05/11 05:50:14;;;;;;;14.1;12.7;;;;;;;14.19;93.85547;93380.4;;;;
2020/05/11 05:51:16;;;;;;;14.1;12.7;;;;;;;14.19;93.85547;93380.4;;;;
2020/05/11 05:52:20;;;;;;;14.1;12.7;;;;;;;14.19;93.85547;93380.4;;;;
2020/05/11 05:53:28;;;;;;;14.1;12.7;;;;;;;14.19;93.85547;93380.4;;;;
2020/05/11 05:54:34;;;;;;;14.1;12.7;;;;;;;14.19;93.85547;93380.4;;;;
2020/05/11 05:55:41;;;;;;;14.1;12.7;;;;;;;14.19;93.85547;93380.4;;;;
2020/05/11 05:56:55;;;;;;;13.3;12;;;;;;;14.25;93.62012;93363.45;;;;
2020/05/11 05:57:56;;;;;;;13.3;12;;;;;;;14.25;93.62012;93363.45;;;;
2020/05/11 05:58:57;;;;;;;13.3;12;;;;;;;14.25;93.62012;93363.45;;;;
2020/05/11 05:59:58;;;;;;;13.3;12;;;;;;;14.25;93.62012;93363.45;;;;